Time;durP1;ratioP1;P1;durP2;ratioP2;P2;SDS_P1;SDS_P2;PMS_P1;PMS_P2;Temp;Humidity;BMP_temperature;BMP_pressure;BME280_temperature;BME280_humidity;BME280_pressure;Samples;Min_cycle;Max_cycle;Signal;HPM_P1;HPM_P2
2022/03/27 00:01:18;;;;;;;;;16.00;15.00;;;;;20.43;28.21;102230.00;4974926;28;45238;-49
2022/03/27 00:03:44;;;;;;;;;14.25;13.75;;;;;20.43;28.08;102230.88;4975042;28;45407;-49
2022/03/27 00:06:09;;;;;;;;;15.50;15.25;;;;;20.42;28.05;102230.94;4973142;28;45465;-49
2022/03/27 00:08:35;;;;;;;;;15.50;13.25;;;;;20.42;27.99;102230.94;4973417;28;45293;-46
2022/03/27 00:13:44;;;;;;;;;13.50;11.50;;;;;20.42;28.21;102233.56;4974971;28;45409;-51
2022/03/27 00:16:10;;;;;;;;;12.25;12.25;;;;;20.41;28.30;102230.06;4973340;28;50032;-51
2022/03/27 00:18:37;;;;;;;;;7.75;7.75;;;;;20.41;28.00;102231.84;4974728;28;45257;-54
2022/03/27 00:21:06;;;;;;;;;16.25;12.50;;;;;20.39;28.33;102235.38;4974844;28;45343;-47
2022/03/27 00:23:31;;;;;;;;;14.75;13.00;;;;;20.38;28.00;102228.38;4974864;28;45524;-42
2022/03/27 00:25:57;;;;;;;;;11.50;9.25;;;;;20.38;28.36;102224.91;4975040;28;45878;-44
2022/03/27 00:28:25;;;;;;;;;15.00;13.50;;;;;20.39;28.38;102235.38;4973473;28;45355;-50
2022/03/27 00:30:50;;;;;;;;;12.75;11.25;;;;;20.38;28.03;102228.38;4973434;28;45483;-47
2022/03/27 00:33:16;;;;;;;;;13.50;12.50;;;;;20.38;28.46;102233.66;4974847;28;45370;-46
2022/03/27 00:35:41;;;;;;;;;18.50;16.00;;;;;20.38;28.17;102224.91;4973855;28;46277;-45
2022/03/27 00:38:07;;;;;;;;;14.50;14.00;;;;;20.37;28.46;102226.66;4974491;28;45384;-51
2022/03/27 00:40:33;;;;;;;;;15.50;12.50;;;;;20.37;28.06;102231.06;4974461;28;45302;-50
2022/03/27 00:42:59;;;;;;;;;20.25;12.75;;;;;20.38;28.36;102232.81;4974740;28;45547;-46
2022/03/27 00:45:24;;;;;;;;;13.75;11.25;;;;;20.37;28.07;102228.44;4974324;28;46370;-50
2022/03/27 00:47:50;;;;;;;;;20.00;12.25;;;;;20.36;28.54;102230.19;4974242;28;45249;-46
2022/03/27 00:50:15;;;;;;;;;16.75;13.25;;;;;20.36;28.50;102226.72;4974208;28;45327;-49
2022/03/27 00:52:41;;;;;;;;;16.00;12.75;;;;;20.36;28.53;102224.94;4974481;28;45228;-47
2022/03/27 00:55:06;;;;;;;;;14.00;14.00;;;;;20.35;28.23;102232.91;4974195;28;46013;-47
2022/03/27 00:57:31;;;;;;;;;14.00;11.25;;;;;20.35;28.38;102223.22;4974313;28;45184;-46
2022/03/27 00:59:57;;;;;;;;;12.50;12.50;;;;;20.36;28.03;102226.72;4972899;28;45281;-44
2022/03/27 01:02:24;;;;;;;;;15.75;13.25;;;;;20.34;28.71;102224.13;4974176;28;45524;-49
2022/03/27 01:04:54;;;;;;;;;13.50;13.00;;;;;20.34;28.15;102218.84;4973951;28;46274;-52
2022/03/27 01:07:19;;;;;;;;;14.00;12.25;;;;;20.34;28.39;102215.38;4973894;28;45838;-52
2022/03/27 01:09:45;;;;;;;;;15.75;14.75;;;;;20.34;28.47;102213.59;4972779;28;45347;-50
2022/03/27 01:12:23;;;;;;;;;13.50;12.00;;;;;20.34;28.70;102215.38;4974297;28;45239;-49
2022/03/27 01:14:53;;;;;;;;;14.00;13.00;;;;;20.32;28.54;102212.81;4972495;28;45974;-49
2022/03/27 01:17:21;;;;;;;;;11.25;11.25;;;;;20.33;28.35;102219.78;4973457;28;46017;-50
2022/03/27 01:19:49;;;;;;;;;20.25;16.50;;;;;20.32;28.71;102215.44;4976853;28;45246;-50
2022/03/27 01:22:17;;;;;;;;;16.00;12.00;;;;;20.33;28.84;102221.53;4977006;28;45588;-51
2022/03/27 01:24:43;;;;;;;;;13.50;11.25;;;;;20.33;28.51;102213.66;4976580;28;45418;-53
2022/03/27 01:27:09;;;;;;;;;11.75;9.50;;;;;20.32;28.62;102211.91;4976733;28;45929;-52
2022/03/27 01:29:34;;;;;;;;;17.00;13.75;;;;;20.32;28.50;102206.66;4977074;28;45275;-43
2022/03/27 01:32:01;;;;;;;;;13.25;13.25;;;;;20.32;28.64;102207.53;4977141;28;45201;-52
2022/03/27 01:34:27;;;;;;;;;18.25;14.75;;;;;20.30;28.71;102192.66;4976506;28;46137;-53
2022/03/27 01:36:52;;;;;;;;;17.50;13.25;;;;;20.32;28.48;102202.28;4976662;28;45331;-51
2022/03/27 01:39:18;;;;;;;;;12.75;12.75;;;;;20.31;28.83;102200.53;4975474;28;45178;-54
2022/03/27 01:41:44;;;;;;;;;14.75;13.00;;;;;20.30;28.54;102193.56;4976749;28;45367;-54
2022/03/27 01:44:17;;;;;;;;;10.25;9.25;;;;;20.30;28.55;102190.91;4976211;28;45554;-53
2022/03/27 01:46:44;;;;;;;;;13.25;12.75;;;;;20.30;28.87;102193.56;4976519;28;45355;-53
2022/03/27 01:49:12;;;;;;;;;14.75;14.25;;;;;20.29;28.45;102183.06;4975341;28;45304;-53
2022/03/27 01:51:38;;;;;;;;;14.50;13.00;;;;;20.29;29.06;102186.56;4975565;28;45459;-50
2022/03/27 01:54:04;;;;;;;;;15.25;13.25;;;;;20.29;28.54;102181.28;4976655;28;46644;-52
2022/03/27 01:56:30;;;;;;;;;15.50;13.25;;;;;20.30;28.72;102185.66;4976244;28;45798;-43
2022/03/27 01:58:56;;;;;;;;;12.75;12.75;;;;;20.30;28.58;102187.41;4976457;28;45220;-53
2022/03/27 02:01:21;;;;;;;;;16.50;13.00;;;;;20.29;28.81;102185.69;4976556;28;45192;-48
2022/03/27 02:03:48;;;;;;;;;17.75;14.00;;;;;20.28;29.08;102174.31;4976101;28;45359;-44
2022/03/27 02:06:15;;;;;;;;;15.25;11.50;;;;;20.29;28.67;102177.78;4976197;28;45714;-43
2022/03/27 02:08:42;;;;;;;;;9.25;7.00;;;;;20.29;28.69;102180.41;4976273;28;45272;-46
2022/03/27 02:11:08;;;;;;;;;14.50;11.00;;;;;20.28;28.72;102176.94;4976405;28;45528;-47
2022/03/27 02:13:34;;;;;;;;;14.50;10.50;;;;;20.27;28.66;102177.84;4976242;28;46098;-49
2022/03/27 02:15:59;;;;;;;;;15.75;12.50;;;;;20.27;29.11;102172.59;4976084;28;45347;-48
2022/03/27 02:18:29;;;;;;;;;14.00;12.50;;;;;20.27;29.10;102177.00;4975925;28;45339;-49
2022/03/27 02:20:55;;;;;;;;;16.50;13.75;;;;;20.26;29.09;102170.84;4976297;28;45358;-49
2022/03/27 02:23:24;;;;;;;;;16.50;14.50;;;;;20.26;29.09;102172.66;4975838;28;46340;-50
2022/03/27 02:25:51;;;;;;;;;13.50;11.00;;;;;20.26;28.76;102178.75;4975897;28;45504;-54
2022/03/27 02:28:16;;;;;;;;;12.00;11.00;;;;;20.26;28.70;102180.53;4974582;28;45915;-44
2022/03/27 02:30:42;;;;;;;;;14.00;12.75;;;;;20.27;28.88;102183.13;4976199;28;45473;-52
2022/03/27 02:33:08;;;;;;;;;16.00;13.75;;;;;20.26;29.10;102178.75;4975974;28;45343;-44
2022/03/27 02:35:34;;;;;;;;;15.00;11.50;;;;;20.26;28.99;102185.81;4976116;28;45729;-45
2022/03/27 02:38:00;;;;;;;;;17.50;13.00;;;;;20.26;28.64;102186.66;4975999;28;45334;-47
2022/03/27 02:40:26;;;;;;;;;17.75;12.75;;;;;20.23;29.22;102189.38;4976099;28;45335;-49
2022/03/27 02:42:52;;;;;;;;;15.25;12.75;;;;;20.25;28.70;102184.94;4975688;28;45372;-52
2022/03/27 02:45:18;;;;;;;;;15.25;11.25;;;;;20.24;28.92;102184.09;4975749;28;45371;-48
2022/03/27 02:47:43;;;;;;;;;15.00;14.00;;;;;20.24;29.07;102184.09;4976029;28;45434;-52
2022/03/27 02:50:10;;;;;;;;;15.25;15.25;;;;;20.24;29.30;102178.81;4974697;28;45367;-53
2022/03/27 02:52:35;;;;;;;;;13.50;12.00;;;;;20.25;29.09;102184.94;4975863;28;45768;-47
2022/03/27 02:55:01;;;;;;;;;12.75;11.50;;;;;20.24;29.35;102183.19;4975679;28;45328;-50
2022/03/27 02:57:26;;;;;;;;;16.75;13.25;;;;;20.22;28.97;102177.16;4975679;28;45745;-51
2022/03/27 02:59:52;;;;;;;;;14.25;13.75;;;;;20.24;29.13;102177.94;4975872;28;45566;-50
2022/03/27 03:02:19;;;;;;;;;16.00;14.00;;;;;20.23;28.77;102176.22;4975492;28;45409;-49
2022/03/27 03:04:44;;;;;;;;;15.00;13.75;;;;;20.24;29.43;102175.31;4975469;28;45247;-54
2022/03/27 03:07:09;;;;;;;;;15.50;15.50;;;;;20.22;29.35;102180.63;4975665;28;45449;-52
2022/03/27 03:09:35;;;;;;;;;14.50;14.50;;;;;20.22;29.22;102182.41;4974745;28;45371;-49
2022/03/27 03:12:01;;;;;;;;;13.75;12.00;;;;;20.22;29.41;102185.91;4975200;28;45846;-53
2022/03/27 03:14:26;;;;;;;;;14.00;13.50;;;;;20.22;29.38;102188.53;4975454;28;45453;-50
2022/03/27 03:16:53;;;;;;;;;19.50;15.00;;;;;20.22;29.37;102182.41;4974127;28;45367;-47
2022/03/27 03:19:18;;;;;;;;;15.00;11.25;;;;;20.22;29.37;102185.06;4975652;28;45350;-50
2022/03/27 03:21:44;;;;;;;;;16.50;11.75;;;;;20.22;29.37;102179.78;4975205;28;45973;-52
2022/03/27 03:24:10;;;;;;;;;16.50;13.25;;;;;20.21;29.28;102186.81;4975511;28;45437;-53
2022/03/27 03:26:35;;;;;;;;;12.75;12.00;;;;;20.21;29.04;102183.31;4974524;28;45369;-49
2022/03/27 03:29:01;;;;;;;;;16.25;15.00;;;;;20.21;29.07;102178.06;4975639;28;45219;-52
2022/03/27 03:31:26;;;;;;;;;16.75;14.00;;;;;20.21;29.18;102180.69;4975143;28;46014;-50
2022/03/27 03:33:51;;;;;;;;;18.00;13.75;;;;;20.20;28.99;102176.34;4975245;28;45451;-48
2022/03/27 03:36:17;;;;;;;;;14.75;13.25;;;;;20.20;29.35;102181.59;4975370;28;45284;-48
2022/03/27 03:38:42;;;;;;;;;18.50;13.50;;;;;20.20;29.28;102185.09;4975460;28;45567;-44
2022/03/27 03:41:08;;;;;;;;;13.25;12.50;;;;;20.20;29.09;102184.22;4974436;28;45422;-54
2022/03/27 03:43:37;;;;;;;;;14.75;14.00;;;;;20.19;28.93;102185.16;4975079;28;45738;-51
2022/03/27 03:46:03;;;;;;;;;15.50;15.50;;;;;20.19;29.12;102185.16;4975219;28;45277;-50
2022/03/27 03:48:29;;;;;;;;;13.75;13.75;;;;;20.19;29.38;102186.00;4975312;28;45319;-51
2022/03/27 03:50:54;;;;;;;;;15.50;13.50;;;;;20.19;29.29;102179.88;4974898;28;46043;-46
2022/03/27 03:53:20;;;;;;;;;15.50;14.00;;;;;20.18;29.10;102183.41;4974982;28;45207;-46
2022/03/27 03:55:45;;;;;;;;;18.50;14.50;;;;;20.18;29.21;102188.69;4975133;28;45331;-48
2022/03/27 03:58:11;;;;;;;;;14.50;12.25;;;;;20.18;29.42;102188.69;4975469;28;45223;-52
2022/03/27 04:00:36;;;;;;;;;12.75;12.75;;;;;20.19;29.26;102188.63;4974801;28;46839;-55
2022/03/27 04:03:02;;;;;;;;;14.25;12.75;;;;;20.19;29.59;102187.78;4974821;28;45267;-54
2022/03/27 04:05:28;;;;;;;;;13.75;12.75;;;;;20.17;29.21;102187.84;4974818;28;45297;-53
2022/03/27 04:07:53;;;;;;;;;13.75;13.50;;;;;20.17;29.51;102185.19;4975124;28;45219;-54
2022/03/27 04:10:19;;;;;;;;;12.50;10.25;;;;;20.17;29.56;102179.06;4974711;28;46597;-50
2022/03/27 04:12:44;;;;;;;;;15.75;15.25;;;;;20.16;29.06;102180.84;4974691;28;45472;-52
2022/03/27 04:15:11;;;;;;;;;13.00;10.00;;;;;20.16;29.37;102187.88;4975217;28;45309;-53
2022/03/27 04:17:46;;;;;;;;;13.75;13.00;;;;;20.16;29.13;102185.22;4974873;28;45573;-53
2022/03/27 04:20:13;;;;;;;;;15.00;12.75;;;;;20.17;29.44;102186.97;4974891;28;45455;-53
2022/03/27 04:22:40;;;;;;;;;14.00;13.25;;;;;20.16;29.27;102190.50;4974905;28;45339;-49
2022/03/27 04:25:05;;;;;;;;;16.75;14.00;;;;;20.16;29.49;102194.00;4973461;28;45221;-50
2022/03/27 04:27:31;;;;;;;;;15.50;12.50;;;;;20.16;29.68;102194.00;4974853;28;45235;-48
2022/03/27 04:29:56;;;;;;;;;9.25;9.25;;;;;20.17;29.56;102194.84;4974500;28;47292;-47
2022/03/27 04:32:22;;;;;;;;;10.00;7.00;;;;;20.16;29.59;102199.28;4973205;28;45368;-48
2022/03/27 04:34:50;;;;;;;;;12.00;11.50;;;;;20.15;29.60;102192.28;4974595;28;45207;-50
2022/03/27 04:37:16;;;;;;;;;13.75;11.00;;;;;20.15;29.45;102191.41;4974596;28;45519;-48
2022/03/27 04:39:41;;;;;;;;;16.00;11.75;;;;;20.16;29.51;102195.75;4974469;28;45333;-54
2022/03/27 04:42:07;;;;;;;;;13.00;13.00;;;;;20.15;29.80;102200.19;4974192;28;45455;-53
2022/03/27 04:44:32;;;;;;;;;14.25;13.25;;;;;20.14;29.67;102193.19;4974268;28;45530;-48
2022/03/27 04:46:57;;;;;;;;;16.25;14.50;;;;;20.15;29.85;102192.28;4973238;28;45343;-52
2022/03/27 04:49:23;;;;;;;;;13.50;12.75;;;;;20.15;29.76;102196.66;4974206;28;45906;-50
2022/03/27 04:51:49;;;;;;;;;13.50;12.25;;;;;20.15;29.52;102204.56;4972747;28;45332;-49
2022/03/27 04:54:14;;;;;;;;;12.75;12.25;;;;;20.14;29.44;102206.34;4974563;28;45406;-54
2022/03/27 04:56:40;;;;;;;;;10.75;10.75;;;;;20.14;29.69;102198.44;4974752;28;45319;-48
2022/03/27 04:59:05;;;;;;;;;15.25;12.25;;;;;20.14;29.92;102194.94;4974079;28;46171;-50
2022/03/27 05:01:30;;;;;;;;;14.00;12.75;;;;;20.14;29.56;102202.84;4974056;28;47568;-50
2022/03/27 05:03:56;;;;;;;;;12.00;10.00;;;;;20.15;29.46;102204.56;4974147;28;45655;-50
2022/03/27 05:06:21;;;;;;;;;10.00;10.00;;;;;20.14;29.63;102202.84;4974440;28;45454;-47
2022/03/27 05:08:46;;;;;;;;;11.50;11.50;;;;;20.14;29.46;102210.75;4974005;28;46232;-48
2022/03/27 05:11:12;;;;;;;;;13.00;11.00;;;;;20.14;29.59;102206.34;4973996;28;52286;-46
2022/03/27 05:13:38;;;;;;;;;20.75;15.25;;;;;20.14;29.91;102213.38;4974122;28;45299;-46
2022/03/27 05:16:03;;;;;;;;;23.00;17.25;;;;;20.13;29.92;102211.66;4974041;28;45581;-44
2022/03/27 05:18:29;;;;;;;;;21.00;19.25;;;;;20.11;29.87;102213.50;4973581;28;45472;-47
2022/03/27 05:20:54;;;;;;;;;21.25;17.75;;;;;20.09;29.85;102210.88;4973577;28;45255;-44
2022/03/27 05:23:20;;;;;;;;;20.50;17.25;;;;;20.07;29.94;102223.22;4973725;28;45502;-47
2022/03/27 05:25:48;;;;;;;;;18.00;17.50;;;;;20.05;29.42;102220.66;4972772;28;45565;-45
2022/03/27 05:28:14;;;;;;;;;21.00;19.50;;;;;20.03;29.74;102219.84;4973787;28;46605;-46
2022/03/27 05:30:40;;;;;;;;;23.75;20.50;;;;;20.03;30.13;102216.34;4973473;28;45477;-46
2022/03/27 05:33:06;;;;;;;;;19.50;19.50;;;;;20.02;29.58;102220.75;4973489;28;45448;-44
2022/03/27 05:35:32;;;;;;;;;16.75;15.00;;;;;20.01;29.76;102212.91;4973714;28;45425;-44
2022/03/27 05:38:01;;;;;;;;;23.00;17.25;;;;;19.99;29.76;102226.13;4973092;28;46196;-50
2022/03/27 05:40:27;;;;;;;;;22.00;19.50;;;;;19.98;29.53;102224.41;4973240;28;45943;-50
2022/03/27 05:42:53;;;;;;;;;27.50;19.75;;;;;19.96;30.15;102214.81;4973426;28;45350;-49
2022/03/27 05:45:19;;;;;;;;;25.25;22.50;;;;;19.95;30.03;102218.38;4972190;28;45383;-48
2022/03/27 05:47:45;;;;;;;;;17.75;16.00;;;;;19.91;29.61;102223.72;4973316;28;45452;-45
2022/03/27 05:50:18;;;;;;;;;21.00;19.00;;;;;19.92;29.64;102222.81;4973168;28;45312;-51
2022/03/27 05:52:44;;;;;;;;;23.75;22.50;;;;;19.90;29.75;102226.38;4973293;28;45366;-50
2022/03/27 05:55:10;;;;;;;;;23.75;19.75;;;;;19.89;29.86;102219.41;4973273;28;45377;-51
2022/03/27 05:57:35;;;;;;;;;21.00;19.25;;;;;19.89;29.78;102227.31;4972868;28;46339;-47
2022/03/27 06:00:02;;;;;;;;;18.75;17.75;;;;;19.86;29.84;102217.72;4972879;28;45256;-50
2022/03/27 06:02:27;;;;;;;;;26.50;23.75;;;;;19.86;29.81;102224.78;4973022;28;45221;-50
2022/03/27 06:04:53;;;;;;;;;25.25;19.25;;;;;19.86;29.75;102224.78;4976184;28;45562;-47
2022/03/27 06:07:18;;;;;;;;;26.00;25.25;;;;;19.85;29.83;102233.53;4975822;28;45954;-47
2022/03/27 06:09:43;;;;;;;;;22.50;20.00;;;;;19.84;29.92;102237.94;4976358;28;45150;-46
2022/03/27 06:12:10;;;;;;;;;20.50;18.00;;;;;19.83;30.14;102240.59;4974844;28;45336;-49
2022/03/27 06:14:35;;;;;;;;;21.00;17.00;;;;;19.83;30.16;102246.75;4976173;28;45579;-49
2022/03/27 06:17:01;;;;;;;;;19.00;19.00;;;;;19.81;30.38;102248.56;4975756;28;46147;-50
2022/03/27 06:19:30;;;;;;;;;22.25;19.75;;;;;19.82;29.78;102244.16;4975949;28;45821;-50
2022/03/27 06:21:55;;;;;;;;;20.75;18.75;;;;;19.80;30.24;102244.19;4975939;28;45338;-52
2022/03/27 06:24:21;;;;;;;;;26.25;21.25;;;;;19.80;30.10;102245.94;4976004;28;45394;-51
2022/03/27 06:26:46;;;;;;;;;18.00;16.00;;;;;19.80;30.15;102240.69;4975975;28;47292;-48
2022/03/27 06:29:14;;;;;;;;;24.25;17.75;;;;;19.80;30.18;102240.69;4975672;28;45823;-44
2022/03/27 06:31:39;;;;;;;;;21.00;19.75;;;;;19.81;30.16;102247.69;4975877;28;45214;-45
2022/03/27 06:34:06;;;;;;;;;27.75;23.25;;;;;19.81;30.02;102247.69;4975924;28;45585;-47
2022/03/27 06:36:37;;;;;;;;;24.00;20.00;;;;;19.81;30.32;102247.69;4974260;28;47699;-51
2022/03/27 06:39:04;;;;;;;;;21.50;17.75;;;;;19.81;30.22;102250.31;4975604;28;45334;-46
2022/03/27 06:41:30;;;;;;;;;17.75;16.75;;;;;19.80;30.37;102248.59;4975770;28;45280;-50
2022/03/27 06:43:55;;;;;;;;;20.50;17.50;;;;;19.82;30.08;102252.03;4975750;28;45317;-49
2022/03/27 06:46:20;;;;;;;;;23.25;18.25;;;;;19.81;30.44;102252.94;4975406;28;45419;-46
2022/03/27 06:48:48;;;;;;;;;20.00;19.50;;;;;19.81;30.68;102247.69;4975752;28;45443;-51
2022/03/27 06:51:14;;;;;;;;;23.25;18.50;;;;;19.80;30.18;102251.22;4975453;28;45367;-47
2022/03/27 06:53:40;;;;;;;;;9.00;5.75;;;;;19.80;30.25;102251.22;4975587;28;45319;-48
2022/03/27 06:56:06;;;;;;;;;18.00;17.75;;;;;19.79;30.09;102250.38;4975314;28;46309;-47
2022/03/27 06:58:32;;;;;;;;;24.50;20.25;;;;;19.78;30.17;102249.53;4975214;28;45303;-48
2022/03/27 07:03:41;;;;;;;;;27.50;24.25;;;;;19.78;30.27;102248.63;4975408;28;45470;-51
2022/03/27 07:06:07;;;;;;;;;22.25;20.00;;;;;19.78;30.07;102251.28;4975120;28;46274;-54
2022/03/27 07:08:33;;;;;;;;;24.50;18.25;;;;;19.77;30.08;102252.19;4975180;28;45371;-56
2022/03/27 07:10:58;;;;;;;;;23.25;18.75;;;;;19.77;30.31;102252.19;4975267;28;45398;-54
2022/03/27 07:13:23;;;;;;;;;21.00;16.25;;;;;19.76;30.14;102251.31;4975383;28;45267;-56
2022/03/27 07:15:49;;;;;;;;;19.00;18.75;;;;;19.75;30.47;102249.59;4974254;28;45407;-57
2022/03/27 07:18:20;;;;;;;;;22.25;20.00;;;;;19.76;30.08;102251.31;4974755;28;45266;-56
2022/03/27 07:20:46;;;;;;;;;23.75;22.00;;;;;19.76;30.73;102255.72;4975123;28;45299;-48
2022/03/27 07:23:14;;;;;;;;;23.50;20.75;;;;;19.75;30.51;102260.13;4975207;28;45343;-52
2022/03/27 07:25:43;;;;;;;;;18.25;17.00;;;;;19.75;30.55;102254.88;4974533;28;45485;-54
2022/03/27 07:28:10;;;;;;;;;22.25;19.00;;;;;19.75;30.17;102257.50;4974922;28;45299;-52
2022/03/27 07:30:37;;;;;;;;;21.25;18.50;;;;;19.74;30.44;102258.41;4974946;28;45843;-52
2022/03/27 07:33:03;;;;;;;;;19.50;19.00;;;;;19.75;30.54;102260.13;4975194;28;45294;-52
2022/03/27 07:35:30;;;;;;;;;21.75;18.25;;;;;19.74;30.41;102253.13;4974872;28;46684;-51
2022/03/27 07:37:57;;;;;;;;;18.75;17.00;;;;;19.76;30.31;102258.34;4974720;28;45410;-53
2022/03/27 07:40:23;;;;;;;;;21.00;16.00;;;;;19.75;30.38;102257.50;4974999;28;45310;-52
2022/03/27 07:42:50;;;;;;;;;18.00;18.00;;;;;19.77;30.76;102262.69;4975324;28;45505;-55
2022/03/27 07:45:23;;;;;;;;;18.00;16.75;;;;;19.74;30.51;102263.66;4974544;28;46337;-52
2022/03/27 07:47:50;;;;;;;;;18.50;16.75;;;;;19.76;30.67;102264.47;4974869;28;45333;-54
2022/03/27 07:50:17;;;;;;;;;23.50;19.00;;;;;19.77;30.83;102263.56;4974816;28;45240;-54
2022/03/27 07:52:44;;;;;;;;;18.50;18.00;;;;;19.78;30.80;102270.56;4974899;28;45495;-54
2022/03/27 07:55:11;;;;;;;;;22.50;17.50;;;;;19.80;30.38;102259.09;4974546;28;45407;-56
2022/03/27 07:57:37;;;;;;;;;25.50;18.50;;;;;19.80;30.43;102261.75;4973319;28;46308;-54
2022/03/27 08:00:04;;;;;;;;;20.75;16.25;;;;;19.80;30.21;102267.00;4974562;28;45383;-54
2022/03/27 08:02:30;;;;;;;;;18.50;17.00;;;;;19.81;30.05;102274.00;4974889;28;45544;-54
2022/03/27 08:04:55;;;;;;;;;21.25;18.75;;;;;19.80;30.64;102272.25;4973123;28;46003;-48
2022/03/27 08:07:20;;;;;;;;;16.50;16.50;;;;;19.80;30.11;102267.00;4974760;28;45251;-47
2022/03/27 08:09:46;;;;;;;;;22.50;17.75;;;;;19.80;30.55;102264.38;4974524;28;45260;-55
2022/03/27 08:12:11;;;;;;;;;21.00;19.25;;;;;19.80;30.24;102267.00;4974572;28;45182;-50
2022/03/27 08:14:38;;;;;;;;;22.25;19.25;;;;;19.81;29.98;102271.34;4974311;28;46112;-54
2022/03/27 08:17:04;;;;;;;;;21.00;19.00;;;;;19.81;30.24;102263.47;4974160;28;45916;-52
2022/03/27 08:19:30;;;;;;;;;19.00;15.75;;;;;19.81;30.63;102280.13;4975603;28;45374;-53
2022/03/27 08:21:55;;;;;;;;;18.00;18.00;;;;;19.83;30.44;102274.81;4974584;28;45532;-56
2022/03/27 08:24:22;;;;;;;;;17.25;16.50;;;;;19.83;30.54;102272.19;4974381;28;45971;-55
2022/03/27 08:26:56;;;;;;;;;19.75;15.75;;;;;19.82;30.08;102266.06;4973543;28;45863;-51
2022/03/27 08:29:23;;;;;;;;;24.00;18.50;;;;;19.84;30.44;102276.53;4974557;28;45358;-56
2022/03/27 08:31:49;;;;;;;;;21.50;18.00;;;;;19.84;29.92;102274.78;4974668;28;45545;-52
2022/03/27 08:34:14;;;;;;;;;19.00;17.00;;;;;19.85;30.29;102275.63;4974026;28;45497;-55
2022/03/27 08:36:39;;;;;;;;;17.25;14.50;;;;;19.85;30.14;102273.00;4974015;28;45479;-51
2022/03/27 08:39:07;;;;;;;;;18.75;14.50;;;;;19.85;29.82;102275.63;4974218;28;45324;-54
2022/03/27 08:41:34;;;;;;;;;18.50;14.75;;;;;19.86;30.15;102267.72;4974206;28;45215;-49
2022/03/27 08:44:00;;;;;;;;;19.25;14.50;;;;;19.87;30.36;102265.97;4973767;28;45319;-50
2022/03/27 08:46:27;;;;;;;;;15.75;15.75;;;;;19.88;30.07;102268.53;4973985;28;45465;-50
2022/03/27 08:48:53;;;;;;;;;18.50;16.75;;;;;19.88;30.41;102267.69;4974233;28;45454;-52
2022/03/27 08:51:28;;;;;;;;;17.00;14.50;;;;;19.89;30.14;102272.06;4974049;28;45314;-48
2022/03/27 08:54:01;;;;;;;;;18.25;17.75;;;;;19.91;30.31;102264.94;4973956;28;46603;-51
2022/03/27 08:56:29;;;;;;;;;19.75;18.25;;;;;19.91;30.29;102272.84;4973806;28;45423;-56
2022/03/27 08:58:57;;;;;;;;;18.25;16.25;;;;;19.92;30.22;102271.94;4974283;28;45342;-52
2022/03/27 09:01:22;;;;;;;;;18.00;16.25;;;;;19.93;30.27;102274.53;4974470;28;45518;-51
2022/03/27 09:03:48;;;;;;;;;18.25;17.25;;;;;19.93;30.00;102278.91;4973696;28;45489;-56
2022/03/27 09:06:13;;;;;;;;;16.00;14.00;;;;;19.93;29.84;102274.53;4973638;28;45193;-53
2022/03/27 09:08:39;;;;;;;;;19.25;17.00;;;;;19.94;29.97;102280.66;4973787;28;45215;-56
2022/03/27 09:11:06;;;;;;;;;22.50;18.50;;;;;19.94;30.16;102283.28;4972681;28;45252;-54
2022/03/27 09:13:32;;;;;;;;;23.00;19.75;;;;;19.95;29.72;102276.25;4973508;28;47224;-56
2022/03/27 09:16:07;;;;;;;;;23.75;18.50;;;;;19.93;30.24;102281.56;4973587;28;45428;-56
2022/03/27 09:18:47;;;;;;;;;19.25;15.75;;;;;19.95;29.84;102281.53;4971958;28;45309;-54
2022/03/27 09:21:14;;;;;;;;;15.75;15.75;;;;;19.95;30.09;102277.13;4973694;28;45449;-55
2022/03/27 09:23:39;;;;;;;;;19.00;16.50;;;;;19.96;29.82;102278.84;4971878;28;47979;-54
2022/03/27 09:26:16;;;;;;;;;18.50;16.75;;;;;19.98;30.31;102278.78;4973507;28;45248;-52
2022/03/27 09:28:47;;;;;;;;;15.00;14.00;;;;;19.99;29.84;102284.03;4973537;28;45785;-55
2022/03/27 09:31:18;;;;;;;;;15.75;14.25;;;;;20.00;29.88;102283.13;4973536;28;45629;-56
2022/03/27 09:33:49;;;;;;;;;21.00;17.50;;;;;19.99;29.82;102276.13;4973153;28;47083;-56
2022/03/27 09:36:28;;;;;;;;;19.00;15.75;;;;;20.01;29.75;102276.06;4971796;28;45257;-56
2022/03/27 09:38:56;;;;;;;;;17.75;15.00;;;;;20.01;29.59;102282.19;4975427;28;45440;-52
2022/03/27 09:41:33;;;;;;;;;18.25;17.25;;;;;20.02;29.80;102281.28;4976556;28;45233;-55
2022/03/27 09:44:04;;;;;;;;;21.25;16.75;;;;;20.02;30.04;102281.28;4976013;28;46409;-54
2022/03/27 09:46:50;;;;;;;;;21.50;19.00;;;;;20.03;30.04;102275.09;4976120;28;45906;-56
2022/03/27 09:49:17;;;;;;;;;17.75;15.50;;;;;20.05;29.73;102277.72;4976282;28;45446;-55
2022/03/27 09:52:08;;;;;;;;;16.25;14.00;;;;;20.05;29.71;102280.34;4976489;28;45548;-55
2022/03/27 09:54:55;;;;;;;;;23.00;18.50;;;;;20.05;29.76;102273.28;4975962;28;46945;-56
2022/03/27 09:57:32;;;;;;;;;17.50;14.00;;;;;20.06;29.76;102276.81;4975940;28;45304;-56
2022/03/27 10:00:14;;;;;;;;;16.75;15.25;;;;;20.06;30.00;102272.38;4976500;28;45303;-56
2022/03/27 10:02:40;;;;;;;;;18.75;16.00;;;;;20.07;29.67;102276.75;4974944;28;45430;-55
2022/03/27 10:05:07;;;;;;;;;17.25;16.25;;;;;20.08;29.81;102267.06;4975711;28;45984;-52
2022/03/27 10:07:38;;;;;;;;;16.75;15.25;;;;;20.09;30.01;102268.78;4975848;28;45438;-55
2022/03/27 10:10:07;;;;;;;;;20.50;18.50;;;;;20.08;30.05;102265.31;4976144;28;45409;-53
2022/03/27 10:12:34;;;;;;;;;25.25;20.00;;;;;20.07;30.15;102265.34;4976056;28;45235;-54
2022/03/27 10:15:06;;;;;;;;;19.75;15.75;;;;;20.08;30.00;102269.69;4975587;28;45293;-53
2022/03/27 10:17:34;;;;;;;;;22.00;17.25;;;;;20.08;29.74;102257.41;4975511;28;45379;-54
2022/03/27 10:20:05;;;;;;;;;18.25;18.25;;;;;20.09;29.68;102258.25;4976052;28;45253;-50
2022/03/27 10:22:31;;;;;;;;;16.50;13.50;;;;;20.08;30.13;102252.16;4976190;28;45372;-53
2022/03/27 10:25:02;;;;;;;;;18.25;15.25;;;;;20.11;29.80;102252.97;4975819;28;46043;-53
2022/03/27 10:27:30;;;;;;;;;22.00;19.00;;;;;20.11;30.07;102245.91;4975833;28;45431;-53
2022/03/27 10:29:56;;;;;;;;;16.25;14.25;;;;;20.12;30.03;102246.81;4976196;28;45320;-56
2022/03/27 10:32:22;;;;;;;;;17.50;13.50;;;;;20.12;29.65;102239.75;4975780;28;45146;-54
2022/03/27 10:35:02;;;;;;;;;21.25;16.50;;;;;20.13;29.96;102241.47;4975404;28;46126;-54
2022/03/27 10:37:34;;;;;;;;;15.75;13.75;;;;;20.14;30.06;102240.56;4973880;28;45361;-53
2022/03/27 10:40:14;;;;;;;;;20.50;18.00;;;;;20.14;30.02;102237.94;4975906;28;45317;-54
2022/03/27 10:43:00;;;;;;;;;19.75;16.75;;;;;20.16;30.00;102235.25;4975721;28;45263;-52
2022/03/27 10:45:26;;;;;;;;;16.25;15.25;;;;;20.15;29.66;102228.25;4975537;28;45271;-53
2022/03/27 10:48:12;;;;;;;;;16.75;13.50;;;;;20.16;29.71;102232.63;4975432;28;45461;-51
2022/03/27 10:50:52;;;;;;;;;11.50;10.00;;;;;20.17;29.84;102226.44;4990510;28;45261;-55
2022/03/27 10:53:23;;;;;;;;;19.75;16.50;;;;;20.18;30.02;102225.53;4975630;28;45321;-53
2022/03/27 10:55:51;;;;;;;;;17.75;16.50;;;;;20.17;29.84;102216.78;4975256;28;45609;-52
2022/03/27 10:58:31;;;;;;;;;20.00;19.00;;;;;20.19;30.05;102214.09;4975288;28;45482;-54
2022/03/27 11:00:59;;;;;;;;;26.00;19.25;;;;;20.19;29.68;102217.59;4974595;28;45414;-56
2022/03/27 11:03:44;;;;;;;;;18.50;15.50;;;;;20.18;29.55;102205.31;4975581;28;45613;-54
2022/03/27 11:06:26;;;;;;;;;17.25;16.50;;;;;20.18;30.07;102207.97;4975106;28;46085;-52
2022/03/27 11:08:53;;;;;;;;;14.75;13.75;;;;;20.19;29.72;102200.94;4975401;28;45800;-51
2022/03/27 11:11:40;;;;;;;;;16.00;14.25;;;;;20.20;30.06;102202.66;4975351;28;45178;-53
2022/03/27 11:14:07;;;;;;;;;17.00;15.75;;;;;20.20;29.61;102203.50;4975636;28;45272;-50
2022/03/27 11:16:36;;;;;;;;;15.00;13.75;;;;;20.21;30.03;102205.22;4975089;28;45516;-47